EBCI/CRL METAR and TAF weather

Enter ICAO airport designator
Station Type Date Time Source
EBCI METAR 2019/09/20 09:50 UTC NOAA

EBCI 200950Z 09009KT 060V130 CAVOK 16/02 Q1028 NOSIG


Station Type Date Time Source
EBCI Decoded METAR 2019/09/20 09:50 UTC NOAA

Charleroi / Gosselies, Belgium (EBCI) 50-28N 004-27E 192M
Sep 20, 2019 - 05:50 AM EDT / 2019.09.20 0950 UTC
Wind: from the E (090 degrees) at 10 MPH (9 KT) (direction variable):0
Visibility: greater than 7 mile(s):0
Temperature: 60 F (16 C)
Dew Point: 35 F (2 C)
Relative Humidity: 38%
Pressure (altimeter): 30.36 in. Hg (1028 hPa)
ob: EBCI 200950Z 09009KT 060V130 CAVOK 16/02 Q1028 NOSIG
cycle: 10

Station Type Date Time Source
EBCI TAF 2019/09/20 06:27 UTC NOAA

TAF EBCI 200520Z 2006/2112 07004KT CAVOK

Example: see airport list